sensor_id;sensor_type;location;lat;lon;timestamp;P1;durP1;ratioP1;P2;durP2;ratioP2
5149;SDS011;2593;52.466;13.436;2023-01-28T00:00:24;9.50;;;4.80;;
5149;SDS011;2593;52.466;13.436;2023-01-28T00:02:50;8.60;;;4.13;;
5149;SDS011;2593;52.466;13.436;2023-01-28T00:05:16;11.10;;;3.50;;
5149;SDS011;2593;52.466;13.436;2023-01-28T00:07:41;6.63;;;3.90;;
5149;SDS011;2593;52.466;13.436;2023-01-28T00:10:07;5.97;;;3.43;;
5149;SDS011;2593;52.466;13.436;2023-01-28T00:12:33;9.43;;;3.80;;
5149;SDS011;2593;52.466;13.436;2023-01-28T00:14:59;4.27;;;3.07;;
5149;SDS011;2593;52.466;13.436;2023-01-28T00:17:25;6.30;;;3.20;;
5149;SDS011;2593;52.466;13.436;2023-01-28T00:19:50;13.70;;;4.10;;
5149;SDS011;2593;52.466;13.436;2023-01-28T00:22:16;9.37;;;3.57;;
5149;SDS011;2593;52.466;13.436;2023-01-28T00:24:41;19.30;;;4.97;;
5149;SDS011;2593;52.466;13.436;2023-01-28T00:27:07;8.63;;;4.03;;
5149;SDS011;2593;52.466;13.436;2023-01-28T00:29:33;8.53;;;3.77;;
5149;SDS011;2593;52.466;13.436;2023-01-28T00:31:58;7.00;;;3.97;;
5149;SDS011;2593;52.466;13.436;2023-01-28T00:34:24;10.03;;;4.20;;
5149;SDS011;2593;52.466;13.436;2023-01-28T00:36:50;4.30;;;3.43;;
5149;SDS011;2593;52.466;13.436;2023-01-28T00:39:25;13.23;;;4.13;;
5149;SDS011;2593;52.466;13.436;2023-01-28T00:41:51;6.43;;;3.80;;
5149;SDS011;2593;52.466;13.436;2023-01-28T00:44:18;11.53;;;5.23;;
5149;SDS011;2593;52.466;13.436;2023-01-28T00:46:44;11.60;;;4.30;;
5149;SDS011;2593;52.466;13.436;2023-01-28T00:49:10;11.20;;;5.80;;
5149;SDS011;2593;52.466;13.436;2023-01-28T00:51:36;8.27;;;4.93;;
5149;SDS011;2593;52.466;13.436;2023-01-28T00:54:02;13.90;;;5.37;;
5149;SDS011;2593;52.466;13.436;2023-01-28T00:56:28;11.70;;;4.37;;
5149;SDS011;2593;52.466;13.436;2023-01-28T00:58:53;10.83;;;4.40;;
5149;SDS011;2593;52.466;13.436;2023-01-28T01:01:20;7.80;;;4.67;;
5149;SDS011;2593;52.466;13.436;2023-01-28T01:03:48;9.40;;;4.53;;
5149;SDS011;2593;52.466;13.436;2023-01-28T01:06:22;5.23;;;3.73;;
5149;SDS011;2593;52.466;13.436;2023-01-28T01:08:49;5.33;;;3.80;;
5149;SDS011;2593;52.466;13.436;2023-01-28T01:11:15;9.63;;;4.40;;
5149;SDS011;2593;52.466;13.436;2023-01-28T01:13:41;11.17;;;6.10;;
5149;SDS011;2593;52.466;13.436;2023-01-28T01:18:38;6.60;;;4.10;;
5149;SDS011;2593;52.466;13.436;2023-01-28T01:21:10;8.17;;;4.33;;
5149;SDS011;2593;52.466;13.436;2023-01-28T01:23:41;18.53;;;5.80;;
5149;SDS011;2593;52.466;13.436;2023-01-28T01:26:07;8.60;;;4.37;;
5149;SDS011;2593;52.466;13.436;2023-01-28T01:28:33;5.83;;;4.40;;
5149;SDS011;2593;52.466;13.436;2023-01-28T01:31:00;10.53;;;3.83;;
5149;SDS011;2593;52.466;13.436;2023-01-28T01:33:46;6.77;;;3.90;;
5149;SDS011;2593;52.466;13.436;2023-01-28T01:36:13;9.67;;;3.60;;
5149;SDS011;2593;52.466;13.436;2023-01-28T01:38:41;6.10;;;4.07;;
5149;SDS011;2593;52.466;13.436;2023-01-28T01:41:07;12.60;;;3.87;;
5149;SDS011;2593;52.466;13.436;2023-01-28T01:43:51;5.53;;;3.50;;
5149;SDS011;2593;52.466;13.436;2023-01-28T01:49:14;6.80;;;3.87;;
5149;SDS011;2593;52.466;13.436;2023-01-28T01:52:02;7.17;;;3.40;;
5149;SDS011;2593;52.466;13.436;2023-01-28T01:54:32;7.67;;;4.10;;
5149;SDS011;2593;52.466;13.436;2023-01-28T01:57:02;16.93;;;4.83;;
5149;SDS011;2593;52.466;13.436;2023-01-28T01:59:31;11.60;;;4.70;;
5149;SDS011;2593;52.466;13.436;2023-01-28T02:02:00;8.13;;;4.10;;
5149;SDS011;2593;52.466;13.436;2023-01-28T02:04:30;8.87;;;2.87;;
5149;SDS011;2593;52.466;13.436;2023-01-28T02:06:59;8.57;;;4.10;;
5149;SDS011;2593;52.466;13.436;2023-01-28T02:09:27;13.83;;;4.87;;
5149;SDS011;2593;52.466;13.436;2023-01-28T02:12:01;13.53;;;3.60;;
5149;SDS011;2593;52.466;13.436;2023-01-28T02:14:27;7.20;;;3.00;;
5149;SDS011;2593;52.466;13.436;2023-01-28T02:16:58;6.40;;;4.00;;
5149;SDS011;2593;52.466;13.436;2023-01-28T02:19:26;13.30;;;4.20;;
5149;SDS011;2593;52.466;13.436;2023-01-28T02:22:22;12.10;;;4.27;;
5149;SDS011;2593;52.466;13.436;2023-01-28T02:25:10;10.53;;;3.60;;
5149;SDS011;2593;52.466;13.436;2023-01-28T02:27:57;13.23;;;3.50;;
5149;SDS011;2593;52.466;13.436;2023-01-28T02:30:34;6.47;;;3.00;;
5149;SDS011;2593;52.466;13.436;2023-01-28T02:33:12;5.80;;;3.23;;
5149;SDS011;2593;52.466;13.436;2023-01-28T02:38:15;4.23;;;2.93;;
5149;SDS011;2593;52.466;13.436;2023-01-28T02:41:04;13.17;;;4.27;;
5149;SDS011;2593;52.466;13.436;2023-01-28T02:43:39;9.17;;;3.10;;
5149;SDS011;2593;52.466;13.436;2023-01-28T02:46:11;8.17;;;3.57;;
5149;SDS011;2593;52.466;13.436;2023-01-28T02:48:57;6.27;;;2.80;;
5149;SDS011;2593;52.466;13.436;2023-01-28T02:51:34;12.40;;;3.60;;
5149;SDS011;2593;52.466;13.436;2023-01-28T02:57:01;6.50;;;3.57;;
5149;SDS011;2593;52.466;13.436;2023-01-28T02:59:42;9.83;;;3.37;;
5149;SDS011;2593;52.466;13.436;2023-01-28T03:05:16;12.87;;;4.10;;
5149;SDS011;2593;52.466;13.436;2023-01-28T03:07:49;13.63;;;3.60;;
5149;SDS011;2593;52.466;13.436;2023-01-28T03:10:17;6.37;;;3.40;;
5149;SDS011;2593;52.466;13.436;2023-01-28T03:12:48;5.10;;;2.80;;
5149;SDS011;2593;52.466;13.436;2023-01-28T03:15:40;8.77;;;3.80;;
5149;SDS011;2593;52.466;13.436;2023-01-28T03:18:34;4.87;;;2.87;;
5149;SDS011;2593;52.466;13.436;2023-01-28T03:21:39;6.80;;;2.40;;
5149;SDS011;2593;52.466;13.436;2023-01-28T03:27:18;7.33;;;2.73;;
5149;SDS011;2593;52.466;13.436;2023-01-28T03:30:38;5.67;;;2.87;;
5149;SDS011;2593;52.466;13.436;2023-01-28T03:33:23;3.77;;;2.67;;
5149;SDS011;2593;52.466;13.436;2023-01-28T03:36:09;9.57;;;3.07;;
5149;SDS011;2593;52.466;13.436;2023-01-28T03:38:54;6.60;;;2.50;;
5149;SDS011;2593;52.466;13.436;2023-01-28T03:41:21;4.43;;;2.80;;
5149;SDS011;2593;52.466;13.436;2023-01-28T03:43:48;8.73;;;2.80;;
5149;SDS011;2593;52.466;13.436;2023-01-28T03:46:15;3.50;;;2.50;;
5149;SDS011;2593;52.466;13.436;2023-01-28T03:48:42;3.03;;;2.73;;
5149;SDS011;2593;52.466;13.436;2023-01-28T03:51:08;4.13;;;2.37;;
5149;SDS011;2593;52.466;13.436;2023-01-28T03:53:34;10.80;;;2.70;;
5149;SDS011;2593;52.466;13.436;2023-01-28T03:55:59;5.10;;;2.67;;
5149;SDS011;2593;52.466;13.436;2023-01-28T03:58:25;3.83;;;2.43;;
5149;SDS011;2593;52.466;13.436;2023-01-28T04:01:04;4.53;;;2.10;;
5149;SDS011;2593;52.466;13.436;2023-01-28T04:03:29;5.33;;;2.60;;
5149;SDS011;2593;52.466;13.436;2023-01-28T04:08:24;2.53;;;2.33;;
5149;SDS011;2593;52.466;13.436;2023-01-28T04:10:50;5.10;;;2.20;;
5149;SDS011;2593;52.466;13.436;2023-01-28T04:13:15;4.90;;;2.10;;
5149;SDS011;2593;52.466;13.436;2023-01-28T04:15:42;2.90;;;2.20;;
5149;SDS011;2593;52.466;13.436;2023-01-28T04:18:09;3.13;;;2.10;;
5149;SDS011;2593;52.466;13.436;2023-01-28T04:20:35;2.57;;;1.73;;
5149;SDS011;2593;52.466;13.436;2023-01-28T04:23:02;4.43;;;2.53;;
5149;SDS011;2593;52.466;13.436;2023-01-28T04:25:28;2.37;;;2.20;;
5149;SDS011;2593;52.466;13.436;2023-01-28T04:27:54;6.00;;;2.23;;
5149;SDS011;2593;52.466;13.436;2023-01-28T04:30:20;5.13;;;2.50;;
5149;SDS011;2593;52.466;13.436;2023-01-28T04:32:46;2.33;;;1.83;;
5149;SDS011;2593;52.466;13.436;2023-01-28T04:35:14;1.63;;;1.53;;
5149;SDS011;2593;52.466;13.436;2023-01-28T04:37:40;2.53;;;2.30;;
5149;SDS011;2593;52.466;13.436;2023-01-28T04:40:06;3.10;;;1.87;;
5149;SDS011;2593;52.466;13.436;2023-01-28T04:42:32;9.60;;;2.37;;
5149;SDS011;2593;52.466;13.436;2023-01-28T04:44:58;3.23;;;1.47;;
5149;SDS011;2593;52.466;13.436;2023-01-28T04:47:23;2.47;;;1.67;;
5149;SDS011;2593;52.466;13.436;2023-01-28T04:49:49;7.30;;;1.93;;
5149;SDS011;2593;52.466;13.436;2023-01-28T04:52:15;2.93;;;1.90;;
5149;SDS011;2593;52.466;13.436;2023-01-28T04:54:40;6.43;;;2.57;;
5149;SDS011;2593;52.466;13.436;2023-01-28T04:57:06;1.77;;;1.60;;
5149;SDS011;2593;52.466;13.436;2023-01-28T04:59:32;2.60;;;2.00;;
5149;SDS011;2593;52.466;13.436;2023-01-28T05:01:57;3.50;;;1.50;;
5149;SDS011;2593;52.466;13.436;2023-01-28T05:04:23;2.20;;;2.07;;
5149;SDS011;2593;52.466;13.436;2023-01-28T05:06:48;5.23;;;2.20;;
5149;SDS011;2593;52.466;13.436;2023-01-28T05:09:14;2.40;;;1.50;;
5149;SDS011;2593;52.466;13.436;2023-01-28T05:11:40;2.70;;;2.07;;
5149;SDS011;2593;52.466;13.436;2023-01-28T05:14:06;2.90;;;2.00;;
5149;SDS011;2593;52.466;13.436;2023-01-28T05:16:31;2.23;;;1.73;;
5149;SDS011;2593;52.466;13.436;2023-01-28T05:18:58;4.33;;;1.90;;
5149;SDS011;2593;52.466;13.436;2023-01-28T05:21:25;4.80;;;1.83;;
5149;SDS011;2593;52.466;13.436;2023-01-28T05:23:51;11.73;;;1.70;;
5149;SDS011;2593;52.466;13.436;2023-01-28T05:26:17;2.10;;;1.70;;
5149;SDS011;2593;52.466;13.436;2023-01-28T05:28:42;5.50;;;1.70;;
5149;SDS011;2593;52.466;13.436;2023-01-28T05:31:08;4.50;;;2.33;;
5149;SDS011;2593;52.466;13.436;2023-01-28T05:33:35;4.20;;;1.93;;
5149;SDS011;2593;52.466;13.436;2023-01-28T05:36:00;1.77;;;1.60;;
5149;SDS011;2593;52.466;13.436;2023-01-28T05:38:26;2.93;;;1.97;;
5149;SDS011;2593;52.466;13.436;2023-01-28T05:40:52;3.40;;;1.70;;
5149;SDS011;2593;52.466;13.436;2023-01-28T05:43:17;8.40;;;2.00;;
5149;SDS011;2593;52.466;13.436;2023-01-28T05:45:43;6.20;;;2.97;;
5149;SDS011;2593;52.466;13.436;2023-01-28T05:48:09;6.70;;;3.13;;
5149;SDS011;2593;52.466;13.436;2023-01-28T05:50:35;3.17;;;2.90;;
5149;SDS011;2593;52.466;13.436;2023-01-28T05:53:03;3.93;;;2.33;;
5149;SDS011;2593;52.466;13.436;2023-01-28T05:55:30;10.40;;;3.23;;
5149;SDS011;2593;52.466;13.436;2023-01-28T05:57:55;22.40;;;3.03;;
5149;SDS011;2593;52.466;13.436;2023-01-28T06:00:21;7.13;;;2.80;;
5149;SDS011;2593;52.466;13.436;2023-01-28T06:02:46;2.27;;;2.07;;
5149;SDS011;2593;52.466;13.436;2023-01-28T06:05:14;4.60;;;2.90;;
5149;SDS011;2593;52.466;13.436;2023-01-28T06:07:43;5.20;;;2.80;;
5149;SDS011;2593;52.466;13.436;2023-01-28T06:10:09;7.00;;;3.93;;
5149;SDS011;2593;52.466;13.436;2023-01-28T06:12:35;7.33;;;4.37;;
5149;SDS011;2593;52.466;13.436;2023-01-28T06:15:00;5.13;;;4.00;;
5149;SDS011;2593;52.466;13.436;2023-01-28T06:17:26;5.10;;;3.77;;
5149;SDS011;2593;52.466;13.436;2023-01-28T06:19:52;6.43;;;4.40;;
5149;SDS011;2593;52.466;13.436;2023-01-28T06:22:17;6.60;;;4.93;;
5149;SDS011;2593;52.466;13.436;2023-01-28T06:24:43;14.77;;;6.47;;
5149;SDS011;2593;52.466;13.436;2023-01-28T06:27:09;6.63;;;5.23;;
5149;SDS011;2593;52.466;13.436;2023-01-28T06:29:34;9.33;;;5.40;;
5149;SDS011;2593;52.466;13.436;2023-01-28T06:32:00;9.87;;;6.60;;
5149;SDS011;2593;52.466;13.436;2023-01-28T06:34:25;11.27;;;7.00;;
5149;SDS011;2593;52.466;13.436;2023-01-28T06:36:51;22.97;;;7.53;;
5149;SDS011;2593;52.466;13.436;2023-01-28T06:39:17;15.60;;;7.20;;
5149;SDS011;2593;52.466;13.436;2023-01-28T06:41:45;13.13;;;6.80;;
5149;SDS011;2593;52.466;13.436;2023-01-28T06:44:11;12.80;;;6.27;;
5149;SDS011;2593;52.466;13.436;2023-01-28T06:46:37;11.47;;;7.03;;
5149;SDS011;2593;52.466;13.436;2023-01-28T06:49:03;11.33;;;6.90;;
5149;SDS011;2593;52.466;13.436;2023-01-28T06:51:28;15.53;;;6.60;;
5149;SDS011;2593;52.466;13.436;2023-01-28T06:53:54;10.40;;;7.30;;
5149;SDS011;2593;52.466;13.436;2023-01-28T06:56:20;21.23;;;6.67;;
5149;SDS011;2593;52.466;13.436;2023-01-28T06:58:45;16.00;;;7.47;;
5149;SDS011;2593;52.466;13.436;2023-01-28T07:01:11;20.80;;;7.20;;
5149;SDS011;2593;52.466;13.436;2023-01-28T07:03:36;10.00;;;5.97;;
5149;SDS011;2593;52.466;13.436;2023-01-28T07:06:02;7.97;;;6.40;;
5149;SDS011;2593;52.466;13.436;2023-01-28T07:08:28;18.30;;;6.70;;
5149;SDS011;2593;52.466;13.436;2023-01-28T07:10:53;13.60;;;7.43;;
5149;SDS011;2593;52.466;13.436;2023-01-28T07:13:19;17.03;;;6.63;;
5149;SDS011;2593;52.466;13.436;2023-01-28T07:15:45;27.60;;;6.30;;
5149;SDS011;2593;52.466;13.436;2023-01-28T07:18:10;20.90;;;8.70;;
5149;SDS011;2593;52.466;13.436;2023-01-28T07:20:36;17.30;;;8.90;;
5149;SDS011;2593;52.466;13.436;2023-01-28T07:23:01;13.53;;;7.80;;
5149;SDS011;2593;52.466;13.436;2023-01-28T07:25:27;14.37;;;7.30;;
5149;SDS011;2593;52.466;13.436;2023-01-28T07:27:53;13.17;;;7.53;;
5149;SDS011;2593;52.466;13.436;2023-01-28T07:30:19;16.37;;;7.37;;
5149;SDS011;2593;52.466;13.436;2023-01-28T07:32:45;15.20;;;7.60;;
5149;SDS011;2593;52.466;13.436;2023-01-28T07:35:11;10.07;;;6.47;;
5149;SDS011;2593;52.466;13.436;2023-01-28T07:37:37;15.83;;;8.10;;
5149;SDS011;2593;52.466;13.436;2023-01-28T07:40:03;14.73;;;8.53;;
5149;SDS011;2593;52.466;13.436;2023-01-28T07:42:29;13.33;;;7.67;;
5149;SDS011;2593;52.466;13.436;2023-01-28T07:44:55;14.27;;;7.80;;
5149;SDS011;2593;52.466;13.436;2023-01-28T07:47:21;12.07;;;6.60;;
5149;SDS011;2593;52.466;13.436;2023-01-28T07:49:47;12.73;;;6.93;;
5149;SDS011;2593;52.466;13.436;2023-01-28T07:52:12;10.60;;;6.80;;
5149;SDS011;2593;52.466;13.436;2023-01-28T07:54:39;8.63;;;5.67;;
5149;SDS011;2593;52.466;13.436;2023-01-28T07:57:07;9.17;;;5.07;;
5149;SDS011;2593;52.466;13.436;2023-01-28T07:59:34;4.43;;;3.63;;
5149;SDS011;2593;52.466;13.436;2023-01-28T08:02:00;7.10;;;4.33;;
5149;SDS011;2593;52.466;13.436;2023-01-28T08:04:25;10.57;;;4.50;;
5149;SDS011;2593;52.466;13.436;2023-01-28T08:06:51;6.67;;;4.47;;
5149;SDS011;2593;52.466;13.436;2023-01-28T08:09:17;12.37;;;5.10;;
5149;SDS011;2593;52.466;13.436;2023-01-28T08:11:42;4.40;;;3.60;;
5149;SDS011;2593;52.466;13.436;2023-01-28T08:14:09;11.80;;;5.13;;
5149;SDS011;2593;52.466;13.436;2023-01-28T08:16:35;11.40;;;5.10;;
5149;SDS011;2593;52.466;13.436;2023-01-28T08:19:00;5.33;;;4.40;;
5149;SDS011;2593;52.466;13.436;2023-01-28T08:21:26;8.03;;;4.93;;
5149;SDS011;2593;52.466;13.436;2023-01-28T08:23:52;6.20;;;4.27;;
5149;SDS011;2593;52.466;13.436;2023-01-28T08:26:18;10.00;;;5.10;;
5149;SDS011;2593;52.466;13.436;2023-01-28T08:28:44;5.43;;;4.50;;
5149;SDS011;2593;52.466;13.436;2023-01-28T08:31:10;20.07;;;5.83;;
5149;SDS011;2593;52.466;13.436;2023-01-28T08:33:35;11.10;;;5.90;;
5149;SDS011;2593;52.466;13.436;2023-01-28T08:36:02;8.43;;;5.40;;
5149;SDS011;2593;52.466;13.436;2023-01-28T08:38:28;5.97;;;5.00;;
5149;SDS011;2593;52.466;13.436;2023-01-28T08:40:54;8.43;;;4.97;;
5149;SDS011;2593;52.466;13.436;2023-01-28T08:43:21;9.80;;;5.70;;
5149;SDS011;2593;52.466;13.436;2023-01-28T08:45:47;9.30;;;5.20;;
5149;SDS011;2593;52.466;13.436;2023-01-28T08:48:14;10.73;;;6.37;;
5149;SDS011;2593;52.466;13.436;2023-01-28T08:50:41;9.17;;;5.00;;
5149;SDS011;2593;52.466;13.436;2023-01-28T08:53:09;10.20;;;6.40;;
5149;SDS011;2593;52.466;13.436;2023-01-28T08:55:40;10.70;;;5.30;;
5149;SDS011;2593;52.466;13.436;2023-01-28T08:58:06;10.70;;;6.10;;
5149;SDS011;2593;52.466;13.436;2023-01-28T09:00:35;13.50;;;5.90;;
5149;SDS011;2593;52.466;13.436;2023-01-28T09:03:01;11.03;;;6.33;;
5149;SDS011;2593;52.466;13.436;2023-01-28T09:05:28;13.53;;;6.23;;
5149;SDS011;2593;52.466;13.436;2023-01-28T09:07:54;18.00;;;6.90;;
5149;SDS011;2593;52.466;13.436;2023-01-28T09:10:20;8.80;;;4.47;;
5149;SDS011;2593;52.466;13.436;2023-01-28T09:12:45;7.17;;;5.23;;
5149;SDS011;2593;52.466;13.436;2023-01-28T09:15:12;4.00;;;3.60;;
5149;SDS011;2593;52.466;13.436;2023-01-28T09:17:37;10.03;;;4.43;;
5149;SDS011;2593;52.466;13.436;2023-01-28T09:20:04;7.97;;;4.23;;
5149;SDS011;2593;52.466;13.436;2023-01-28T09:22:31;4.00;;;3.60;;
5149;SDS011;2593;52.466;13.436;2023-01-28T09:24:57;4.50;;;3.23;;
5149;SDS011;2593;52.466;13.436;2023-01-28T09:27:22;3.80;;;2.70;;
5149;SDS011;2593;52.466;13.436;2023-01-28T09:29:48;3.20;;;2.70;;
5149;SDS011;2593;52.466;13.436;2023-01-28T09:32:14;14.93;;;8.10;;
5149;SDS011;2593;52.466;13.436;2023-01-28T09:34:39;7.40;;;4.73;;
5149;SDS011;2593;52.466;13.436;2023-01-28T09:37:05;7.60;;;2.50;;
5149;SDS011;2593;52.466;13.436;2023-01-28T09:39:31;2.23;;;2.03;;
5149;SDS011;2593;52.466;13.436;2023-01-28T09:47:21;4.70;;;2.73;;
5149;SDS011;2593;52.466;13.436;2023-01-28T09:49:51;2.93;;;1.20;;
5149;SDS011;2593;52.466;13.436;2023-01-28T09:52:21;4.10;;;1.37;;
5149;SDS011;2593;52.466;13.436;2023-01-28T09:54:51;9.93;;;1.87;;
5149;SDS011;2593;52.466;13.436;2023-01-28T09:57:25;8.10;;;3.10;;
5149;SDS011;2593;52.466;13.436;2023-01-28T10:00:00;4.43;;;2.57;;
5149;SDS011;2593;52.466;13.436;2023-01-28T10:05:31;1.53;;;1.43;;
5149;SDS011;2593;52.466;13.436;2023-01-28T10:10:59;3.23;;;1.30;;
5149;SDS011;2593;52.466;13.436;2023-01-28T10:16:20;10.70;;;1.37;;
5149;SDS011;2593;52.466;13.436;2023-01-28T10:19:09;4.60;;;1.50;;
5149;SDS011;2593;52.466;13.436;2023-01-28T10:21:48;2.30;;;0.97;;
5149;SDS011;2593;52.466;13.436;2023-01-28T10:24:24;1.00;;;0.90;;
5149;SDS011;2593;52.466;13.436;2023-01-28T10:27:16;3.67;;;1.40;;
5149;SDS011;2593;52.466;13.436;2023-01-28T10:29:45;4.33;;;1.17;;
5149;SDS011;2593;52.466;13.436;2023-01-28T10:32:37;1.83;;;1.07;;
5149;SDS011;2593;52.466;13.436;2023-01-28T10:35:11;1.23;;;0.83;;
5149;SDS011;2593;52.466;13.436;2023-01-28T10:37:36;4.00;;;2.60;;
5149;SDS011;2593;52.466;13.436;2023-01-28T10:40:04;2.93;;;1.50;;
5149;SDS011;2593;52.466;13.436;2023-01-28T10:42:33;6.23;;;2.57;;
5149;SDS011;2593;52.466;13.436;2023-01-28T10:48:34;2.97;;;2.73;;
5149;SDS011;2593;52.466;13.436;2023-01-28T10:51:07;9.53;;;3.70;;
5149;SDS011;2593;52.466;13.436;2023-01-28T10:53:36;4.20;;;2.33;;
5149;SDS011;2593;52.466;13.436;2023-01-28T10:56:04;5.23;;;2.23;;
5149;SDS011;2593;52.466;13.436;2023-01-28T10:58:36;4.80;;;2.83;;
5149;SDS011;2593;52.466;13.436;2023-01-28T11:01:14;5.13;;;1.77;;
5149;SDS011;2593;52.466;13.436;2023-01-28T11:03:40;2.00;;;1.07;;
5149;SDS011;2593;52.466;13.436;2023-01-28T11:06:22;3.90;;;1.20;;
5149;SDS011;2593;52.466;13.436;2023-01-28T11:08:52;3.03;;;1.10;;
5149;SDS011;2593;52.466;13.436;2023-01-28T11:11:23;1.73;;;1.40;;
5149;SDS011;2593;52.466;13.436;2023-01-28T11:13:50;1.53;;;0.90;;
5149;SDS011;2593;52.466;13.436;2023-01-28T11:16:18;0.70;;;0.70;;
5149;SDS011;2593;52.466;13.436;2023-01-28T11:18:56;3.33;;;0.93;;
5149;SDS011;2593;52.466;13.436;2023-01-28T11:21:30;4.40;;;1.00;;
5149;SDS011;2593;52.466;13.436;2023-01-28T11:26:31;1.53;;;1.00;;
5149;SDS011;2593;52.466;13.436;2023-01-28T11:29:00;2.83;;;1.20;;
5149;SDS011;2593;52.466;13.436;2023-01-28T11:31:26;2.73;;;1.07;;
5149;SDS011;2593;52.466;13.436;2023-01-28T11:33:54;3.00;;;0.80;;
5149;SDS011;2593;52.466;13.436;2023-01-28T11:36:23;1.30;;;1.00;;
5149;SDS011;2593;52.466;13.436;2023-01-28T11:41:40;5.90;;;2.67;;
5149;SDS011;2593;52.466;13.436;2023-01-28T11:49:21;2.83;;;1.50;;
5149;SDS011;2593;52.466;13.436;2023-01-28T11:57:21;3.60;;;1.93;;
5149;SDS011;2593;52.466;13.436;2023-01-28T11:59:53;5.80;;;2.63;;
5149;SDS011;2593;52.466;13.436;2023-01-28T12:10:16;1.50;;;1.40;;
5149;SDS011;2593;52.466;13.436;2023-01-28T12:21:15;2.37;;;1.50;;
5149;SDS011;2593;52.466;13.436;2023-01-28T12:38:39;2.97;;;1.47;;
5149;SDS011;2593;52.466;13.436;2023-01-28T12:41:27;2.10;;;0.77;;
5149;SDS011;2593;52.466;13.436;2023-01-28T12:44:01;2.70;;;1.13;;
5149;SDS011;2593;52.466;13.436;2023-01-28T12:46:54;1.53;;;1.40;;
5149;SDS011;2593;52.466;13.436;2023-01-28T12:57:13;2.70;;;1.10;;
5149;SDS011;2593;52.466;13.436;2023-01-28T13:02:44;10.03;;;1.30;;
5149;SDS011;2593;52.466;13.436;2023-01-28T13:05:22;1.83;;;1.30;;
5149;SDS011;2593;52.466;13.436;2023-01-28T13:07:57;2.20;;;1.10;;
5149;SDS011;2593;52.466;13.436;2023-01-28T13:13:24;4.13;;;1.00;;
5149;SDS011;2593;52.466;13.436;2023-01-28T13:15:54;1.23;;;0.90;;
5149;SDS011;2593;52.466;13.436;2023-01-28T13:21:04;1.47;;;1.10;;
5149;SDS011;2593;52.466;13.436;2023-01-28T13:28:42;7.30;;;3.80;;
5149;SDS011;2593;52.466;13.436;2023-01-28T13:31:09;11.80;;;5.40;;
5149;SDS011;2593;52.466;13.436;2023-01-28T13:34:02;2.13;;;1.83;;
5149;SDS011;2593;52.466;13.436;2023-01-28T13:36:36;1.63;;;0.90;;
5149;SDS011;2593;52.466;13.436;2023-01-28T13:41:36;2.10;;;1.07;;
5149;SDS011;2593;52.466;13.436;2023-01-28T13:44:03;2.50;;;0.77;;
5149;SDS011;2593;52.466;13.436;2023-01-28T13:46:40;2.00;;;0.87;;
5149;SDS011;2593;52.466;13.436;2023-01-28T13:49:09;3.53;;;1.17;;
5149;SDS011;2593;52.466;13.436;2023-01-28T13:51:39;5.23;;;1.70;;
5149;SDS011;2593;52.466;13.436;2023-01-28T13:54:17;0.70;;;0.60;;
5149;SDS011;2593;52.466;13.436;2023-01-28T14:10:45;4.33;;;1.90;;
5149;SDS011;2593;52.466;13.436;2023-01-28T14:16:12;4.70;;;1.93;;
5149;SDS011;2593;52.466;13.436;2023-01-28T14:18:46;2.30;;;1.50;;
5149;SDS011;2593;52.466;13.436;2023-01-28T14:21:14;6.63;;;1.83;;
5149;SDS011;2593;52.466;13.436;2023-01-28T14:23:43;8.53;;;1.80;;
5149;SDS011;2593;52.466;13.436;2023-01-28T14:31:45;1.87;;;1.70;;
5149;SDS011;2593;52.466;13.436;2023-01-28T14:37:01;3.33;;;2.40;;
5149;SDS011;2593;52.466;13.436;2023-01-28T14:42:17;4.40;;;2.00;;
5149;SDS011;2593;52.466;13.436;2023-01-28T14:44:47;5.83;;;3.10;;
5149;SDS011;2593;52.466;13.436;2023-01-28T14:47:51;4.60;;;2.67;;
5149;SDS011;2593;52.466;13.436;2023-01-28T14:58:49;29.73;;;8.67;;
5149;SDS011;2593;52.466;13.436;2023-01-28T15:01:27;4.43;;;2.00;;
5149;SDS011;2593;52.466;13.436;2023-01-28T15:03:54;1.97;;;1.87;;
5149;SDS011;2593;52.466;13.436;2023-01-28T15:06:21;15.37;;;4.43;;
5149;SDS011;2593;52.466;13.436;2023-01-28T15:08:49;15.40;;;7.37;;
5149;SDS011;2593;52.466;13.436;2023-01-28T15:11:22;37.17;;;10.97;;
5149;SDS011;2593;52.466;13.436;2023-01-28T15:13:51;10.03;;;4.20;;
5149;SDS011;2593;52.466;13.436;2023-01-28T15:16:20;9.20;;;4.40;;
5149;SDS011;2593;52.466;13.436;2023-01-28T15:18:49;41.20;;;10.07;;
5149;SDS011;2593;52.466;13.436;2023-01-28T15:21:23;60.17;;;10.87;;
5149;SDS011;2593;52.466;13.436;2023-01-28T15:23:53;18.37;;;6.33;;
5149;SDS011;2593;52.466;13.436;2023-01-28T15:26:25;32.00;;;10.13;;
5149;SDS011;2593;52.466;13.436;2023-01-28T15:28:53;22.73;;;7.50;;
5149;SDS011;2593;52.466;13.436;2023-01-28T15:31:24;6.13;;;3.27;;
5149;SDS011;2593;52.466;13.436;2023-01-28T15:33:58;4.00;;;2.40;;
5149;SDS011;2593;52.466;13.436;2023-01-28T15:36:25;6.20;;;3.30;;
5149;SDS011;2593;52.466;13.436;2023-01-28T15:38:55;1.30;;;1.00;;
5149;SDS011;2593;52.466;13.436;2023-01-28T15:41:23;1.73;;;1.63;;
5149;SDS011;2593;52.466;13.436;2023-01-28T15:43:53;2.97;;;1.20;;
5149;SDS011;2593;52.466;13.436;2023-01-28T15:46:20;1.23;;;1.00;;
5149;SDS011;2593;52.466;13.436;2023-01-28T15:48:52;9.83;;;3.33;;
5149;SDS011;2593;52.466;13.436;2023-01-28T15:51:29;14.53;;;5.83;;
5149;SDS011;2593;52.466;13.436;2023-01-28T15:54:05;59.07;;;21.70;;
5149;SDS011;2593;52.466;13.436;2023-01-28T15:56:34;48.90;;;16.43;;
5149;SDS011;2593;52.466;13.436;2023-01-28T16:01:34;24.00;;;9.97;;
5149;SDS011;2593;52.466;13.436;2023-01-28T16:04:01;35.80;;;12.77;;
5149;SDS011;2593;52.466;13.436;2023-01-28T16:06:30;59.97;;;22.07;;
5149;SDS011;2593;52.466;13.436;2023-01-28T16:09:44;61.53;;;21.83;;
5149;SDS011;2593;52.466;13.436;2023-01-28T16:12:02;38.53;;;15.00;;
5149;SDS011;2593;52.466;13.436;2023-01-28T16:14:45;34.73;;;11.20;;
5149;SDS011;2593;52.466;13.436;2023-01-28T16:17:15;20.73;;;10.17;;
5149;SDS011;2593;52.466;13.436;2023-01-28T16:19:44;9.97;;;4.43;;
5149;SDS011;2593;52.466;13.436;2023-01-28T16:27:45;15.73;;;6.27;;
5149;SDS011;2593;52.466;13.436;2023-01-28T16:30:11;23.37;;;9.70;;
5149;SDS011;2593;52.466;13.436;2023-01-28T16:32:38;40.60;;;16.50;;
5149;SDS011;2593;52.466;13.436;2023-01-28T16:37:44;128.43;;;31.70;;
5149;SDS011;2593;52.466;13.436;2023-01-28T16:40:10;54.57;;;17.80;;
5149;SDS011;2593;52.466;13.436;2023-01-28T16:42:38;38.33;;;10.83;;
5149;SDS011;2593;52.466;13.436;2023-01-28T16:45:04;14.53;;;6.13;;
5149;SDS011;2593;52.466;13.436;2023-01-28T16:47:30;8.40;;;4.60;;
5149;SDS011;2593;52.466;13.436;2023-01-28T16:49:56;3.40;;;2.93;;
5149;SDS011;2593;52.466;13.436;2023-01-28T16:52:21;14.77;;;5.90;;
5149;SDS011;2593;52.466;13.436;2023-01-28T16:54:47;30.70;;;11.10;;
5149;SDS011;2593;52.466;13.436;2023-01-28T16:57:13;48.20;;;17.47;;
5149;SDS011;2593;52.466;13.436;2023-01-28T16:59:44;43.53;;;14.50;;
5149;SDS011;2593;52.466;13.436;2023-01-28T17:02:10;10.70;;;4.90;;
5149;SDS011;2593;52.466;13.436;2023-01-28T17:04:37;11.07;;;3.87;;
5149;SDS011;2593;52.466;13.436;2023-01-28T17:07:03;4.60;;;2.40;;
5149;SDS011;2593;52.466;13.436;2023-01-28T17:09:29;27.47;;;10.80;;
5149;SDS011;2593;52.466;13.436;2023-01-28T17:11:54;12.63;;;6.60;;
5149;SDS011;2593;52.466;13.436;2023-01-28T17:14:21;16.90;;;6.57;;
5149;SDS011;2593;52.466;13.436;2023-01-28T17:16:46;21.27;;;8.93;;
5149;SDS011;2593;52.466;13.436;2023-01-28T17:19:12;12.47;;;5.90;;
5149;SDS011;2593;52.466;13.436;2023-01-28T17:21:40;5.80;;;2.87;;
5149;SDS011;2593;52.466;13.436;2023-01-28T17:24:05;13.70;;;6.10;;
5149;SDS011;2593;52.466;13.436;2023-01-28T17:26:32;22.77;;;7.30;;
5149;SDS011;2593;52.466;13.436;2023-01-28T17:28:59;29.30;;;10.33;;
5149;SDS011;2593;52.466;13.436;2023-01-28T17:31:25;18.50;;;8.83;;
5149;SDS011;2593;52.466;13.436;2023-01-28T17:33:54;20.53;;;9.60;;
5149;SDS011;2593;52.466;13.436;2023-01-28T17:36:21;7.80;;;3.93;;
5149;SDS011;2593;52.466;13.436;2023-01-28T17:38:50;17.07;;;5.23;;
5149;SDS011;2593;52.466;13.436;2023-01-28T17:41:16;46.13;;;15.30;;
5149;SDS011;2593;52.466;13.436;2023-01-28T17:43:42;33.87;;;9.37;;